Time;durP1;ratioP1;P1;durP2;ratioP2;P2;SDS_P1;SDS_P2;PMS_P1;PMS_P2;Temp;Humidity;BMP_temperature;BMP_pressure;BME280_temperature;BME280_humidity;BME280_pressure;Samples;Min_cycle;Max_cycle;Signal;HPM_P1;HPM_P2
2021/10/05 00:02:39;;;;;;;25.60;15.50;;;;;;;11.68;78.84;100680.86;1741970;82;25523;-50
2021/10/05 00:05:42;;;;;;;30.65;16.02;;;;;;;11.64;78.87;100677.70;1742009;81;25547;-48
2021/10/05 00:09:23;;;;;;;29.10;15.85;;;;;;;11.62;79.02;100682.62;1750672;80;25854;-48
2021/10/05 00:18:37;;;;;;;28.55;16.05;;;;;;;11.52;79.20;100670.11;1752392;80;25767;-48
2021/10/05 00:21:41;;;;;;;32.63;16.80;;;;;;;11.49;79.33;100659.35;1748258;80;27960;-48
2021/10/05 00:28:07;;;;;;;24.00;16.48;;;;;;;11.44;79.69;100664.06;1741987;82;25595;-48
2021/10/05 00:34:38;;;;;;;31.02;17.50;;;;;;;11.39;79.84;100660.91;1741995;82;25468;-47
2021/10/05 00:40:07;;;;;;;28.17;16.45;;;;;;;11.34;79.73;100666.44;1741828;82;25656;-48
2021/10/05 00:42:52;;;;;;;32.20;16.50;;;;;;;11.30;79.71;100670.31;1717298;82;25730;-49
2021/10/05 00:48:42;;;;;;;29.60;16.93;;;;;;;11.28;79.91;100676.59;1741971;82;25658;-50
2021/10/05 00:52:23;;;;;;;25.10;16.02;;;;;;;11.26;79.96;100680.16;1741966;82;25653;-47
2021/10/05 00:56:04;;;;;;;30.95;17.15;;;;;;;11.25;79.95;100685.31;1741963;82;25772;-47
2021/10/05 00:59:27;;;;;;;25.10;16.17;;;;;;;11.21;80.25;100682.41;1741931;82;25508;-49
2021/10/05 01:02:32;;;;;;;32.13;17.27;;;;;;;11.16;80.23;100670.34;1741897;82;25497;-47
2021/10/05 01:15:24;;;;;;;30.90;17.80;;;;;;;11.06;80.61;100665.70;1742009;82;25574;-50
2021/10/05 01:18:10;;;;;;;29.75;17.05;;;;;;;11.03;80.73;100664.39;1741881;81;27749;-48
2021/10/05 01:24:13;;;;;;;32.03;17.57;;;;;;;10.99;80.48;100657.98;1748171;80;29604;-48
2021/10/05 01:27:17;;;;;;;28.95;17.42;;;;;;;10.95;80.61;100653.73;1751787;80;25847;-46
2021/10/05 01:39:51;;;;;;;29.72;15.83;;;;;;;10.91;80.71;100655.42;1743750;81;28564;-49
2021/10/05 01:43:32;;;;;;;30.80;16.65;;;;;;;10.90;80.58;100659.81;1737948;81;25609;-50
2021/10/05 01:46:54;;;;;;;35.68;17.57;;;;;;;10.88;80.75;100657.94;1741963;82;25530;-51
2021/10/05 01:50:16;;;;;;;25.82;16.32;;;;;;;10.82;80.74;100647.77;1741900;82;25701;-50
2021/10/05 01:59:46;;;;;;;29.82;15.60;;;;;;;10.72;80.69;100654.19;1741792;82;25449;-50
2021/10/05 02:02:52;;;;;;;23.75;16.07;;;;;;;10.68;80.74;100654.55;1741944;82;25613;-50
2021/10/05 02:12:41;;;;;;;28.05;14.93;;;;;;;10.62;80.90;100650.33;1741907;82;25528;-50
2021/10/05 02:16:03;;;;;;;32.65;16.73;;;;;;;10.61;80.81;100646.83;1741820;82;25492;-49
2021/10/05 02:19:06;;;;;;;25.15;15.48;;;;;;;10.58;80.74;100641.22;1741998;82;25629;-51
2021/10/05 02:22:10;;;;;;;28.23;15.68;;;;;;;10.57;80.78;100635.55;1741831;82;25579;-48
2021/10/05 02:29:13;;;;;;;26.40;15.00;;;;;;;10.53;80.87;100639.41;1741882;82;27458;-48
2021/10/05 02:32:54;;;;;;;30.32;16.23;;;;;;;10.50;80.96;100638.65;1741826;82;25432;-47
2021/10/05 02:42:24;;;;;;;24.75;14.45;;;;;;;10.45;80.90;100636.87;1741886;82;25517;-47
2021/10/05 02:46:05;;;;;;;28.73;15.98;;;;;;;10.43;80.91;100646.36;1741891;82;25656;-48
2021/10/05 02:59:36;;;;;;;23.92;15.23;;;;;;;10.34;80.81;100636.00;1742049;82;25668;-48
2021/10/05 03:11:55;;;;;;;29.07;15.60;;;;;;;10.29;80.80;100633.59;1741811;82;25642;-50
2021/10/05 03:18:21;;;;;;;26.50;14.53;;;;;;;10.24;80.88;100626.13;1741903;82;25622;-52
2021/10/05 03:31:50;;;;;;;27.98;14.63;;;;;;;10.19;80.99;100641.09;1741903;82;25502;-52
2021/10/05 03:45:56;;;;;;;25.62;13.88;;;;;;;10.09;81.28;100640.16;1741978;82;25430;-47
2021/10/05 03:48:59;;;;;;;24.63;13.60;;;;;;;10.08;81.16;100634.52;1741998;81;25530;-48
2021/10/05 03:52:07;;;;;;;26.20;13.75;;;;;;;10.07;81.20;100632.11;1742003;82;25551;-51
2021/10/05 03:58:52;;;;;;;25.92;13.83;;;;;;;10.07;81.26;100630.76;1742005;82;25403;-48
2021/10/05 04:01:37;;;;;;;24.77;14.18;;;;;;;10.08;81.32;100630.47;1741925;82;25640;-49
2021/10/05 04:21:53;;;;;;;23.52;13.13;;;;;;;10.10;81.21;100638.28;1742008;82;25469;-49
2021/10/05 04:25:15;;;;;;;29.27;13.45;;;;;;;10.09;81.15;100630.70;1741976;82;25667;-49
2021/10/05 04:28:39;;;;;;;23.70;13.25;;;;;;;10.09;81.30;100625.30;1741872;82;25505;-48
2021/10/05 04:37:16;;;;;;;26.45;13.13;;;;;;;10.10;81.10;100626.91;1741948;82;25522;-47
2021/10/05 04:40:04;;;;;;;23.27;13.25;;;;;;;10.10;81.10;100630.17;1741828;81;27323;-48
2021/10/05 04:45:57;;;;;;;22.25;12.63;;;;;;;10.10;80.80;100628.82;1741917;82;25439;-49
2021/10/05 04:52:25;;;;;;;23.50;12.98;;;;;;;10.07;80.63;100635.61;1741998;82;25583;-49
2021/10/05 04:55:28;;;;;;;26.45;13.40;;;;;;;10.02;80.62;100641.09;1742025;82;28220;-48
2021/10/05 05:02:32;;;;;;;22.82;12.13;;;;;;;9.98;80.73;100629.29;1742035;82;25697;-49
2021/10/05 05:19:23;;;;;;;21.02;12.93;;;;;;;9.95;80.68;100620.42;1741929;82;25585;-50
2021/10/05 05:23:03;;;;;;;22.87;12.75;;;;;;;9.96;80.56;100626.61;1741904;82;25674;-47
2021/10/05 05:29:13;;;;;;;23.60;13.22;;;;;;;9.99;80.61;100628.17;1741887;82;27393;-50
2021/10/05 05:43:02;;;;;;;23.40;12.47;;;;;;;10.18;80.70;100635.42;1748103;81;25458;-46
2021/10/05 05:46:25;;;;;;;25.48;12.95;;;;;;;10.26;80.61;100634.74;1741894;82;25543;-48
2021/10/05 05:59:00;;;;;;;21.15;12.00;;;;;;;10.54;80.26;100644.25;1741974;82;25752;-47
2021/10/05 06:01:30;;;;;;;26.65;13.15;;;;;;;10.64;80.16;100644.06;1741908;81;27325;-47
2021/10/05 06:10:40;;;;;;;26.07;13.68;;;;;;;10.90;79.44;100653.05;1741831;82;25789;-51
2021/10/05 06:13:46;;;;;;;22.40;12.40;;;;;;;10.99;79.22;100649.31;1741928;82;25531;-51
2021/10/05 06:20:14;;;;;;;25.20;12.63;;;;;;;11.20;78.76;100645.62;1741782;80;25601;-50
2021/10/05 06:22:59;;;;;;;28.20;13.13;;;;;;;11.33;78.63;100642.62;1741837;81;25637;-50
2021/10/05 06:25:29;;;;;;;26.12;13.62;;;;;;;11.40;78.48;100642.20;1741878;81;26192;-51
2021/10/05 06:28:32;;;;;;;25.10;13.13;;;;;;;11.52;78.21;100634.33;1741941;82;25513;-50
2021/10/05 06:31:35;;;;;;;20.20;12.35;;;;;;;11.66;78.09;100634.84;1741897;82;27392;-50
2021/10/05 06:34:40;;;;;;;22.10;11.85;;;;;;;11.79;77.71;100642.11;1741803;82;25495;-52
2021/10/05 06:38:02;;;;;;;20.10;12.15;;;;;;;11.98;77.45;100635.73;1741907;82;25626;-48
2021/10/05 06:41:06;;;;;;;25.32;13.08;;;;;;;12.16;77.78;100630.65;1711301;82;26193;-52
2021/10/05 06:44:09;;;;;;;19.27;11.05;;;;;;;12.44;77.31;100633.16;1741791;81;25667;-51
2021/10/05 06:47:12;;;;;;;18.42;11.55;;;;;;;12.68;76.81;100625.98;1741887;82;25614;-51
2021/10/05 07:01:19;;;;;;;23.47;11.48;;;;;;;13.76;74.45;100625.48;1741859;82;25496;-50
2021/10/05 07:04:40;;;;;;;17.87;11.30;;;;;;;14.10;73.84;100615.65;1741860;82;27465;-50
2021/10/05 07:10:17;;;;;;;20.43;11.95;;;;;;;14.61;72.01;100603.52;1741791;82;25689;-50
2021/10/05 07:17:06;;;;;;;17.37;10.63;;;;;;;15.21;71.93;100598.83;1741950;82;25598;-53
2021/10/05 07:20:10;;;;;;;25.50;11.00;;;;;;;15.56;69.52;100599.33;1742070;81;27307;-48
2021/10/05 07:22:37;;;;;;;18.25;10.90;;;;;;;15.73;68.63;100616.06;1741921;82;25827;-52
2021/10/05 07:28:45;;;;;;;18.02;10.53;;;;;;;16.36;65.64;100617.83;1742007;82;25450;-48
2021/10/05 07:32:07;;;;;;;17.17;10.23;;;;;;;16.99;65.37;100619.66;1742045;82;25488;-51
2021/10/05 07:38:52;;;;;;;17.32;10.18;;;;;;;17.29;62.89;100620.72;1741904;82;25679;-52
2021/10/05 07:41:56;;;;;;;19.10;10.23;;;;;;;17.32;62.50;100621.97;1742000;81;25587;-52
2021/10/05 07:44:59;;;;;;;17.87;10.08;;;;;;;17.55;62.52;100616.75;1745187;81;25500;-54
2021/10/05 08:02:46;;;;;;;19.60;9.78;;;;;;;18.90;60.84;100617.84;1752057;81;25513;-48
2021/10/05 08:05:49;;;;;;;15.13;9.20;;;;;;;19.11;59.30;100622.20;1752054;81;25526;-48
2021/10/05 08:08:35;;;;;;;16.70;9.95;;;;;;;19.28;59.02;100615.50;1752055;81;27403;-52
2021/10/05 08:18:04;;;;;;;17.27;8.95;;;;;;;19.85;57.57;100605.64;1752036;81;25609;-51
2021/10/05 08:21:26;;;;;;;18.35;9.63;;;;;;;20.05;56.61;100606.98;1752125;81;25497;-49
2021/10/05 08:27:51;;;;;;;17.45;9.70;;;;;;;19.92;55.79;100602.23;1751969;81;25645;-52
2021/10/05 08:31:31;;;;;;;14.70;9.43;;;;;;;19.90;56.68;100596.33;1752132;81;25623;-50
2021/10/05 08:41:40;;;;;;;12.28;8.78;;;;;;;21.11;53.37;100582.87;1752037;81;25622;-49
2021/10/05 08:44:44;;;;;;;15.15;9.35;;;;;;;21.25;54.63;100572.66;1752066;81;25621;-51
2021/10/05 08:47:49;;;;;;;15.15;9.50;;;;;;;21.54;51.59;100580.67;1752074;81;25456;-50
2021/10/05 09:14:46;;;;;;;19.27;9.28;;;;;;;22.65;48.66;100580.84;1752135;81;27263;-51
2021/10/05 09:21:50;;;;;;;12.45;8.20;;;;;;;22.99;47.52;100558.56;1752027;81;25510;-53
2021/10/05 09:32:26;;;;;;;14.03;8.93;;;;;;;23.93;46.39;100554.11;1751980;81;27321;-50
2021/10/05 09:47:00;;;;;;;16.10;8.18;;;;;;;23.25;44.21;100547.84;1745108;81;25541;-47
2021/10/05 09:53:45;;;;;;;22.77;9.65;;;;;;;22.40;45.71;100538.55;1741846;82;25528;-48
2021/10/05 09:59:54;;;;;;;15.88;8.75;;;;;;;22.20;46.85;100540.14;1741848;82;27804;-49
2021/10/05 10:02:21;;;;;;;15.55;9.35;;;;;;;22.01;46.61;100531.54;1741899;82;25688;-48
2021/10/05 10:04:48;;;;;;;14.18;8.78;;;;;;;21.73;46.49;100535.64;1741935;82;27446;-50
2021/10/05 10:07:15;;;;;;;14.50;8.05;;;;;;;21.51;46.81;100522.25;1741817;81;25436;-49
2021/10/05 10:09:42;;;;;;;12.78;7.95;;;;;;;21.33;47.54;100523.40;1741820;82;25689;-52
2021/10/05 10:12:09;;;;;;;12.55;8.60;;;;;;;21.38;48.48;100526.41;1741868;82;25726;-51
2021/10/05 10:14:37;;;;;;;14.25;8.28;;;;;;;21.47;48.84;100526.94;1741943;81;25478;-53
2021/10/05 10:17:04;;;;;;;15.05;8.60;;;;;;;21.71;48.41;100515.15;1741911;82;27373;-49
2021/10/05 10:19:36;;;;;;;17.17;8.15;;;;;;;22.01;48.95;100517.20;1741847;81;25711;-52
2021/10/05 10:22:10;;;;;;;15.35;9.20;;;;;;;22.50;48.49;100503.38;1741683;82;25709;-50
2021/10/05 10:24:49;;;;;;;11.90;8.25;;;;;;;23.16;48.14;100523.20;1741844;82;26307;-50
2021/10/05 10:27:17;;;;;;;12.80;8.10;;;;;;;23.36;45.14;100521.67;1742093;82;25490;-50
2021/10/05 10:29:45;;;;;;;10.58;8.25;;;;;;;23.29;43.92;100506.45;1741889;81;28021;-51
2021/10/05 10:32:26;;;;;;;14.70;8.37;;;;;;;23.20;46.03;100510.19;1742054;82;25581;-51
2021/10/05 10:35:08;;;;;;;17.17;8.08;;;;;;;23.59;46.46;100520.52;1737338;82;25514;-51
2021/10/05 10:37:45;;;;;;;14.70;8.48;;;;;;;23.73;45.22;100516.38;1741943;82;25629;-49
2021/10/05 10:40:15;;;;;;;12.23;8.35;;;;;;;23.54;43.41;100502.97;1741241;82;25521;-49
2021/10/05 10:42:43;;;;;;;14.83;8.28;;;;;;;23.31;43.82;100502.74;1741882;82;27366;-52
2021/10/05 10:45:19;;;;;;;12.93;8.15;;;;;;;23.64;46.06;100512.63;1742414;81;25623;-52
2021/10/05 10:47:54;;;;;;;13.18;8.78;;;;;;;23.92;45.66;100502.80;1752010;81;25692;-50
2021/10/05 10:50:21;;;;;;;11.90;7.72;;;;;;;24.42;46.36;100501.96;1751813;81;25688;-49
2021/10/05 10:52:49;;;;;;;17.25;7.90;;;;;;;25.04;45.26;100500.55;1752254;81;25624;-52
2021/10/05 10:55:20;;;;;;;14.80;8.20;;;;;;;25.35;44.83;100496.08;1752399;81;27515;-49
2021/10/05 10:57:55;;;;;;;13.45;8.05;;;;;;;25.79;44.80;100504.06;1728390;81;25613;-48
2021/10/05 11:00:33;;;;;;;13.88;8.15;;;;;;;26.47;43.01;100497.89;1752152;81;25621;-51
2021/10/05 11:03:02;;;;;;;20.13;8.70;;;;;;;26.28;42.22;100500.67;1753969;81;25683;-49
2021/10/05 11:05:36;;;;;;;14.25;7.50;;;;;;;26.06;41.52;100494.55;1752127;81;25487;-51
2021/10/05 11:08:12;;;;;;;12.23;7.92;;;;;;;26.03;41.33;100492.59;1752099;81;29522;-49
2021/10/05 11:10:40;;;;;;;14.38;7.87;;;;;;;25.84;40.78;100489.77;1752018;81;25464;-50
2021/10/05 11:13:08;;;;;;;13.25;7.45;;;;;;;25.64;39.46;100499.22;1752120;81;25537;-51
2021/10/05 11:15:49;;;;;;;13.50;8.38;;;;;;;25.51;41.17;100485.87;1752307;81;25684;-48
2021/10/05 11:18:20;;;;;;;12.45;8.35;;;;;;;25.65;41.92;100480.81;1752132;81;25692;-48
2021/10/05 11:20:53;;;;;;;16.62;8.60;;;;;;;26.08;42.11;100478.29;1752150;81;27962;-50
2021/10/05 11:23:23;;;;;;;12.10;7.40;;;;;;;26.19;40.41;100461.57;1752008;81;25625;-49
2021/10/05 11:25:57;;;;;;;14.13;8.60;;;;;;;26.31;39.02;100484.60;1752114;81;25471;-51
2021/10/05 11:28:28;;;;;;;14.45;8.25;;;;;;;26.28;40.09;100478.49;1752105;81;25627;-49
2021/10/05 11:31:02;;;;;;;13.70;8.48;;;;;;;26.10;38.54;100478.66;1727334;81;25467;-51
2021/10/05 11:33:38;;;;;;;13.45;8.48;;;;;;;25.97;39.85;100481.78;1752123;81;27316;-47
2021/10/05 11:36:16;;;;;;;11.60;7.62;;;;;;;25.91;39.71;100474.46;1723922;83;25753;-49
2021/10/05 11:38:49;;;;;;;13.62;7.80;;;;;;;25.83;38.92;100461.28;1723244;81;25747;-49
2021/10/05 11:41:16;;;;;;;13.83;7.47;;;;;;;25.79;39.86;100459.73;1703928;83;25751;-49
2021/10/05 11:43:51;;;;;;;12.18;7.72;;;;;;;25.70;40.01;100459.60;1724051;82;25736;-49
2021/10/05 11:46:22;;;;;;;10.25;7.62;;;;;;;25.77;39.24;100467.67;1696691;83;28042;-49
2021/10/05 11:48:53;;;;;;;12.50;7.78;;;;;;;25.65;39.50;100467.58;1718800;83;25760;-49
2021/10/05 11:51:24;;;;;;;13.32;7.72;;;;;;;25.56;39.42;100458.34;1718109;83;25597;-50
2021/10/05 11:53:52;;;;;;;15.10;7.65;;;;;;;25.63;39.20;100456.12;1684008;85;25704;-52
2021/10/05 11:56:24;;;;;;;11.03;7.67;;;;;;;25.60;39.76;100448.62;1718822;83;25502;-49
2021/10/05 11:58:56;;;;;;;12.53;7.60;;;;;;;25.64;39.87;100450.75;1683998;85;29517;-51
2021/10/05 12:01:27;;;;;;;10.68;7.58;;;;;;;25.67;40.19;100435.48;1718805;83;25777;-51
2021/10/05 12:04:07;;;;;;;13.83;7.67;;;;;;;25.92;39.33;100424.78;1683986;85;25518;-49
2021/10/05 12:06:40;;;;;;;11.38;7.20;;;;;;;26.08;39.68;100427.83;1718796;83;25657;-49
2021/10/05 12:09:12;;;;;;;12.63;7.95;;;;;;;25.95;39.08;100424.00;1684072;83;25888;-51
2021/10/05 12:11:44;;;;;;;16.77;7.90;;;;;;;25.71;38.72;100431.30;1717798;83;27283;-49
2021/10/05 12:14:12;;;;;;;14.58;8.20;;;;;;;25.25;38.33;100425.52;1708645;83;25626;-49
2021/10/05 12:16:44;;;;;;;20.08;8.53;;;;;;;24.99;38.60;100444.26;1715393;83;25464;-48
2021/10/05 12:19:12;;;;;;;18.05;8.45;;;;;;;24.72;39.34;100419.92;1688118;84;25751;-51
2021/10/05 12:21:43;;;;;;;22.82;9.05;;;;;;;24.75;40.44;100430.16;1653221;86;25564;-51
2021/10/05 12:24:09;;;;;;;13.00;7.40;;;;;;;24.94;40.01;100405.95;1648415;86;27202;-48
2021/10/05 12:26:39;;;;;;;11.70;8.43;;;;;;;25.03;40.55;100419.33;1655192;85;25733;-50
2021/10/05 12:29:10;;;;;;;16.93;8.60;;;;;;;25.06;39.52;100424.84;1647742;86;25777;-52
2021/10/05 12:31:35;;;;;;;11.15;7.28;;;;;;;24.82;39.27;100431.32;1677364;85;32411;-49
2021/10/05 12:34:07;;;;;;;15.13;9.15;;;;;;;24.60;39.88;100393.52;1652906;86;25750;-53
2021/10/05 12:36:37;;;;;;;12.58;8.28;;;;;;;24.59;40.40;100411.88;1653058;86;28115;-49
2021/10/05 12:39:17;;;;;;;13.55;8.00;;;;;;;24.65;39.88;100406.11;1650054;86;25978;-53
2021/10/05 12:41:56;;;;;;;13.10;8.10;;;;;;;24.63;41.03;100408.50;1652894;86;25606;-50
2021/10/05 12:44:23;;;;;;;19.37;8.95;;;;;;;24.70;39.45;100427.81;1688251;84;25775;-49
2021/10/05 12:47:00;;;;;;;14.63;8.70;;;;;;;24.40;39.76;100418.05;1653112;85;25677;-48
2021/10/05 12:49:27;;;;;;;14.23;8.65;;;;;;;24.39;40.35;100416.46;1650413;86;28062;-52
2021/10/05 12:51:55;;;;;;;13.00;7.92;;;;;;;24.42;40.44;100413.50;1652802;86;25721;-52
2021/10/05 12:54:22;;;;;;;16.32;8.00;;;;;;;24.41;40.19;100416.84;1644588;86;25714;-50
2021/10/05 12:56:50;;;;;;;13.58;8.15;;;;;;;24.28;40.42;100428.73;1692271;82;25744;-49
2021/10/05 12:59:16;;;;;;;12.85;7.70;;;;;;;24.14;40.49;100415.75;1714502;83;25484;-48
2021/10/05 13:01:43;;;;;;;15.48;8.13;;;;;;;24.07;40.54;100413.02;1708275;83;27351;-47
2021/10/05 13:04:15;;;;;;;15.32;8.60;;;;;;;24.02;40.31;100401.77;1708119;84;25538;-52
2021/10/05 13:06:42;;;;;;;13.22;8.30;;;;;;;23.92;40.82;100398.44;1708243;84;25704;-48
2021/10/05 13:09:11;;;;;;;15.50;8.08;;;;;;;23.71;40.83;100408.30;1708181;83;25616;-50
2021/10/05 13:11:40;;;;;;;17.17;8.83;;;;;;;23.63;41.30;100420.53;1708373;84;25712;-50
2021/10/05 13:14:07;;;;;;;18.00;8.80;;;;;;;23.58;41.63;100408.51;1708316;84;29467;-48
2021/10/05 13:16:34;;;;;;;16.85;8.00;;;;;;;23.65;42.19;100406.55;1708143;84;25653;-48
2021/10/05 13:19:04;;;;;;;12.82;8.25;;;;;;;23.76;42.20;100408.51;1708254;84;25648;-51
2021/10/05 13:21:32;;;;;;;18.30;8.15;;;;;;;23.75;41.71;100414.63;1708206;84;25746;-49
2021/10/05 13:23:59;;;;;;;13.15;8.15;;;;;;;23.62;41.57;100418.97;1689830;84;25537;-48
2021/10/05 13:26:28;;;;;;;17.02;7.85;;;;;;;23.54;42.02;100408.52;1713193;83;28039;-49
2021/10/05 13:28:56;;;;;;;11.57;7.75;;;;;;;23.48;42.02;100408.73;1708301;84;25620;-49
2021/10/05 13:31:23;;;;;;;16.23;8.25;;;;;;;23.41;42.50;100403.99;1708431;83;25593;-49
2021/10/05 13:33:50;;;;;;;15.58;8.65;;;;;;;23.50;42.43;100414.03;1708194;83;25636;-50
2021/10/05 13:36:18;;;;;;;12.60;8.13;;;;;;;23.51;42.97;100402.39;1713840;83;25560;-49
2021/10/05 13:38:45;;;;;;;20.00;7.62;;;;;;;23.65;42.53;100400.22;1708187;84;28139;-49
2021/10/05 13:41:12;;;;;;;19.52;8.13;;;;;;;23.64;42.84;100394.52;1708108;83;27197;-50
2021/10/05 13:43:39;;;;;;;17.05;7.83;;;;;;;23.47;42.21;100384.45;1708313;84;25474;-49
2021/10/05 13:46:06;;;;;;;14.03;7.92;;;;;;;23.38;42.96;100415.01;1707969;83;25651;-50
2021/10/05 13:48:37;;;;;;;15.25;8.33;;;;;;;23.26;43.04;100387.23;1720849;83;25765;-50
2021/10/05 13:51:03;;;;;;;17.40;7.90;;;;;;;23.12;43.24;100387.41;1708236;83;27326;-51
2021/10/05 13:53:31;;;;;;;12.88;8.30;;;;;;;23.01;43.49;100403.13;1706578;84;25677;-52
2021/10/05 13:55:58;;;;;;;18.40;7.35;;;;;;;22.94;43.31;100381.05;1703376;83;25596;-50
2021/10/05 13:58:27;;;;;;;13.43;8.23;;;;;;;22.94;43.50;100377.70;1703354;84;26365;-51
2021/10/05 14:00:53;;;;;;;12.93;7.25;;;;;;;22.80;43.52;100382.38;1703558;84;25519;-49
2021/10/05 14:03:21;;;;;;;12.70;7.47;;;;;;;22.69;43.77;100375.47;1703376;84;27333;-52
2021/10/05 14:05:51;;;;;;;11.15;7.20;;;;;;;22.53;43.42;100357.31;1703248;84;25646;-49
2021/10/05 14:08:19;;;;;;;17.32;8.08;;;;;;;22.30;44.08;100370.61;1703371;84;25467;-49
2021/10/05 14:10:46;;;;;;;14.37;7.30;;;;;;;22.18;44.35;100379.97;1703547;84;27746;-53
2021/10/05 14:13:13;;;;;;;14.23;8.10;;;;;;;22.08;44.75;100372.44;1703395;84;25595;-49
2021/10/05 14:15:39;;;;;;;11.88;7.78;;;;;;;22.08;44.82;100386.21;1703353;84;29507;-50
2021/10/05 14:18:08;;;;;;;20.25;7.92;;;;;;;21.94;44.95;100379.45;1683341;84;25464;-49
2021/10/05 14:20:38;;;;;;;12.75;6.62;;;;;;;21.86;44.80;100377.03;1703398;84;25571;-49
2021/10/05 14:23:06;;;;;;;13.22;7.12;;;;;;;21.70;45.10;100374.58;1703306;84;27772;-48
2021/10/05 14:25:32;;;;;;;18.95;7.42;;;;;;;21.60;45.37;100373.33;1703484;84;25445;-49
2021/10/05 14:28:02;;;;;;;17.15;7.72;;;;;;;21.50;45.63;100370.69;1703453;84;28146;-49
2021/10/05 14:30:30;;;;;;;17.23;7.50;;;;;;;21.47;45.92;100370.10;1703290;84;25619;-49
2021/10/05 14:32:56;;;;;;;19.07;7.95;;;;;;;21.46;46.17;100365.73;1703396;84;25705;-49
2021/10/05 14:35:24;;;;;;;15.65;7.95;;;;;;;21.41;46.31;100364.11;1703441;84;25853;-48
2021/10/05 14:37:54;;;;;;;14.50;7.42;;;;;;;21.42;46.56;100353.92;1703534;84;25504;-52
2021/10/05 14:40:22;;;;;;;;;;;;;;;21.36;46.47;100381.56;1705867;83;27984;-50
2021/10/05 14:42:51;;;;;;;17.07;7.25;;;;;;;21.26;46.52;100363.20;1703402;83;25722;-50
2021/10/05 14:45:18;;;;;;;13.20;6.78;;;;;;;21.13;46.63;100370.17;1703364;84;25567;-47
2021/10/05 14:47:45;;;;;;;16.30;7.10;;;;;;;21.00;46.90;100385.37;1712072;83;26209;-48
2021/10/05 14:50:13;;;;;;;13.20;6.75;;;;;;;20.90;46.88;100403.33;1708169;83;25449;-50
2021/10/05 14:52:39;;;;;;;15.53;7.37;;;;;;;20.79;46.91;100381.80;1708195;84;27502;-49
2021/10/05 14:55:08;;;;;;;12.55;6.97;;;;;;;20.66;46.98;100392.27;1708071;84;25491;-48
2021/10/05 14:57:35;;;;;;;19.67;6.70;;;;;;;20.51;47.32;100373.41;1692310;83;25511;-50
2021/10/05 15:00:07;;;;;;;15.80;6.55;;;;;;;20.41;47.73;100378.98;1688213;85;26285;-50
2021/10/05 15:02:36;;;;;;;11.88;6.08;;;;;;;20.32;47.89;100378.48;1688397;85;25728;-48
2021/10/05 15:05:03;;;;;;;13.43;6.37;;;;;;;20.25;48.17;100373.69;1688493;84;27353;-51
2021/10/05 15:07:32;;;;;;;13.20;6.75;;;;;;;20.18;48.24;100377.72;1688295;85;25651;-48
2021/10/05 15:09:59;;;;;;;15.13;7.00;;;;;;;20.08;48.21;100373.66;1688452;85;25497;-49
2021/10/05 15:12:26;;;;;;;15.93;6.70;;;;;;;19.95;48.29;100381.34;1688327;85;25672;-48
2021/10/05 15:14:53;;;;;;;14.28;5.85;;;;;;;19.83;48.56;100381.54;1688361;85;25243;-50
2021/10/05 15:17:20;;;;;;;10.10;6.45;;;;;;;19.75;48.77;100382.03;1688311;85;27296;-51
2021/10/05 15:19:47;;;;;;;17.07;7.00;;;;;;;19.63;48.94;100382.22;1688260;85;25491;-49
2021/10/05 15:22:16;;;;;;;19.67;6.42;;;;;;;19.48;49.07;100385.86;1738690;81;25688;-48
2021/10/05 15:24:43;;;;;;;12.07;6.67;;;;;;;19.31;49.38;100384.44;1755281;81;25628;-51
2021/10/05 15:27:11;;;;;;;11.35;6.30;;;;;;;19.13;49.53;100378.63;1732322;81;25515;-52
2021/10/05 15:29:39;;;;;;;13.50;6.42;;;;;;;18.95;49.94;100386.52;1755165;81;27966;-46
2021/10/05 15:32:06;;;;;;;11.05;6.42;;;;;;;18.83;50.17;100399.80;1755079;81;25914;-50
2021/10/05 15:34:34;;;;;;;12.55;5.83;;;;;;;18.69;50.35;100398.14;1755214;81;25674;-49
2021/10/05 15:37:01;;;;;;;15.30;7.58;;;;;;;18.56;50.67;100394.74;1755248;81;25611;-50
2021/10/05 15:39:28;;;;;;;9.75;6.40;;;;;;;18.47;50.94;100405.36;1755333;81;25499;-48
2021/10/05 15:41:55;;;;;;;14.15;6.67;;;;;;;18.36;51.26;100396.12;1755322;81;28183;-48
2021/10/05 15:44:21;;;;;;;15.35;6.78;;;;;;;18.24;51.33;100390.78;1755238;81;25485;-49
2021/10/05 15:46:48;;;;;;;13.20;6.58;;;;;;;18.17;51.55;100396.11;1732393;81;25632;-48
2021/10/05 15:49:16;;;;;;;15.03;6.37;;;;;;;18.07;51.73;100386.50;1752120;81;25627;-49
2021/10/05 15:51:54;;;;;;;14.00;6.78;;;;;;;17.98;51.86;100386.71;1752119;81;25496;-48
2021/10/05 15:54:22;;;;;;;13.35;6.92;;;;;;;17.90;52.10;100398.05;1751950;81;27396;-49
2021/10/05 15:56:49;;;;;;;18.27;7.40;;;;;;;17.82;52.39;100399.00;1727236;81;25496;-51
2021/10/05 15:59:16;;;;;;;14.18;6.80;;;;;;;17.74;52.62;100404.08;1752084;81;25466;-48
2021/10/05 16:01:43;;;;;;;15.80;6.47;;;;;;;17.67;52.72;100407.47;1752024;81;25780;-50
2021/10/05 16:04:10;;;;;;;15.70;6.60;;;;;;;17.57;52.98;100403.90;1752122;81;25689;-50
2021/10/05 16:06:37;;;;;;;12.37;6.50;;;;;;;17.51;52.94;100413.51;1752044;81;27353;-48
2021/10/05 16:09:06;;;;;;;13.43;5.97;;;;;;;17.44;53.11;100412.75;1751935;81;25497;-50
2021/10/05 16:11:40;;;;;;;13.22;6.80;;;;;;;17.38;53.23;100425.09;1752208;81;25718;-48
2021/10/05 16:14:01;;;;;;;14.47;6.42;;;;;;;17.31;53.35;100409.87;1751056;81;25693;-49
2021/10/05 16:16:28;;;;;;;18.30;7.17;;;;;;;17.26;53.53;100410.92;1752111;81;25547;-49
2021/10/05 16:18:54;;;;;;;9.95;6.25;;;;;;;17.23;53.60;100412.20;1752045;81;29564;-48
2021/10/05 16:21:21;;;;;;;16.55;6.30;;;;;;;17.16;53.51;100410.89;1751961;81;25454;-48
2021/10/05 16:23:48;;;;;;;18.85;7.10;;;;;;;17.10;53.66;100398.61;1752041;81;25455;-54
2021/10/05 16:26:15;;;;;;;11.73;6.40;;;;;;;17.08;53.67;100405.59;1751982;81;25604;-49
2021/10/05 16:28:41;;;;;;;19.98;7.28;;;;;;;17.04;53.88;100412.30;1752088;81;25644;-51
2021/10/05 16:31:08;;;;;;;14.95;6.95;;;;;;;16.96;53.59;100405.86;1752089;81;27993;-48
2021/10/05 16:33:37;;;;;;;14.23;6.92;;;;;;;16.93;53.65;100402.45;1751942;81;25824;-48
2021/10/05 16:36:05;;;;;;;16.27;8.00;;;;;;;16.88;53.54;100399.20;1752326;81;25479;-48
2021/10/05 16:38:33;;;;;;;13.40;6.47;;;;;;;16.85;53.55;100396.58;1752133;81;25607;-50
2021/10/05 16:41:01;;;;;;;11.68;6.45;;;;;;;16.78;53.36;100395.78;1752093;81;25516;-52
2021/10/05 16:43:29;;;;;;;18.98;7.08;;;;;;;16.75;53.28;100390.22;1752056;81;27329;-48
2021/10/05 16:45:58;;;;;;;20.00;8.60;;;;;;;16.70;53.15;100394.02;1751911;81;27132;-49
2021/10/05 16:48:26;;;;;;;17.57;7.87;;;;;;;16.68;53.15;100404.47;1720491;82;25507;-47
2021/10/05 16:50:54;;;;;;;11.53;6.53;;;;;;;16.64;52.78;100395.97;1745340;82;25640;-51
2021/10/05 16:53:22;;;;;;;13.83;7.03;;;;;;;16.59;52.70;100405.98;1745116;82;25643;-48
2021/10/05 16:55:49;;;;;;;10.53;6.40;;;;;;;16.55;52.72;100411.92;1745094;82;27441;-49
2021/10/05 16:58:16;;;;;;;17.75;6.80;;;;;;;16.52;52.56;100421.38;1744939;82;25891;-49
2021/10/05 17:00:43;;;;;;;16.27;5.85;;;;;;;16.51;52.42;100409.64;1745088;82;25663;-50
2021/10/05 17:03:09;;;;;;;17.85;6.97;;;;;;;16.47;52.17;100411.49;1745006;82;25605;-51
2021/10/05 17:05:36;;;;;;;17.73;7.30;;;;;;;16.46;52.09;100422.17;1745071;82;25641;-49
2021/10/05 17:08:04;;;;;;;16.07;6.80;;;;;;;16.43;51.96;100410.02;1745049;82;27316;-48
2021/10/05 17:10:33;;;;;;;12.63;6.30;;;;;;;16.42;51.27;100404.33;1744952;82;25482;-49
2021/10/05 17:12:59;;;;;;;13.08;7.28;;;;;;;16.42;51.54;100411.73;1745091;81;25459;-47
2021/10/05 17:15:26;;;;;;;10.30;6.67;;;;;;;16.41;51.44;100416.95;1714301;82;25572;-49
2021/10/05 17:17:53;;;;;;;17.20;8.20;;;;;;;16.38;51.10;100426.64;1745140;82;25624;-52
2021/10/05 17:20:24;;;;;;;22.07;8.45;;;;;;;16.33;51.00;100409.14;1745060;82;28421;-47
2021/10/05 17:22:54;;;;;;;16.62;7.85;;;;;;;16.35;50.73;100416.41;1744999;82;25645;-51
2021/10/05 17:25:20;;;;;;;17.53;8.23;;;;;;;16.32;50.24;100414.36;1745311;81;25440;-51